createdAt,value
2023-02-17T00:00:19.212Z,94.10
2023-02-17T00:02:45.910Z,94.30
2023-02-17T00:05:13.076Z,94.27
2023-02-17T00:07:39.802Z,93.93
2023-02-17T00:10:07.471Z,94.09
2023-02-17T00:12:34.062Z,94.13
2023-02-17T00:15:00.552Z,94.29
2023-02-17T00:17:27.146Z,94.07
2023-02-17T00:19:55.696Z,93.48
2023-02-17T00:22:25.459Z,93.20
2023-02-17T00:24:52.243Z,93.04
2023-02-17T00:27:19.599Z,93.55
2023-02-17T00:29:46.279Z,94.03
2023-02-17T00:32:13.099Z,93.66
2023-02-17T00:34:39.681Z,93.62
2023-02-17T00:37:06.902Z,93.66
2023-02-17T00:39:33.409Z,93.41
2023-02-17T00:41:59.960Z,93.65
2023-02-17T00:44:31.098Z,93.22
2023-02-17T00:46:58.191Z,93.74
2023-02-17T00:49:26.613Z,93.58
2023-02-17T00:51:53.660Z,93.67
2023-02-17T00:54:20.807Z,93.50
2023-02-17T00:56:47.407Z,93.96
2023-02-17T00:59:13.897Z,94.36
2023-02-17T01:01:40.434Z,94.12
2023-02-17T01:04:09.420Z,94.17
2023-02-17T01:06:38.120Z,94.14
2023-02-17T01:09:08.544Z,94.25
2023-02-17T01:11:37.810Z,94.50
2023-02-17T01:14:06.409Z,94.69
2023-02-17T01:16:42.418Z,94.85
2023-02-17T01:19:13.190Z,94.68
2023-02-17T01:21:39.735Z,94.97
2023-02-17T01:24:12.370Z,94.64
2023-02-17T01:26:39.821Z,95.35
2023-02-17T01:29:07.411Z,95.38
2023-02-17T01:31:34.843Z,95.22
2023-02-17T01:34:03.862Z,95.93
2023-02-17T01:36:31.197Z,95.40
2023-02-17T01:38:58.797Z,96.08
2023-02-17T01:41:27.228Z,96.21
2023-02-17T01:44:21.912Z,96.55
2023-02-17T01:46:51.663Z,96.82
2023-02-17T01:49:26.944Z,97.04
2023-02-17T01:52:01.123Z,97.12
2023-02-17T01:54:34.192Z,97.29
2023-02-17T01:57:02.188Z,97.19
2023-02-17T01:59:31.329Z,97.22
2023-02-17T02:02:00.604Z,97.92
2023-02-17T02:04:31.925Z,98.48
2023-02-17T02:06:59.095Z,98.09
2023-02-17T02:09:36.961Z,98.66
2023-02-17T02:12:03.595Z,98.24
2023-02-17T02:14:32.027Z,98.78
2023-02-17T02:17:21.768Z,98.57
2023-02-17T02:20:25.991Z,98.55
2023-02-17T02:23:30.610Z,98.62
2023-02-17T02:26:09.062Z,98.95
2023-02-17T02:29:03.665Z,98.84
2023-02-17T02:31:46.092Z,99.41
2023-02-17T02:34:20.612Z,99.22
2023-02-17T02:37:00.601Z,99.17
2023-02-17T02:39:34.751Z,99.56
2023-02-17T02:42:07.820Z,99.94
2023-02-17T02:44:35.045Z,100.00
2023-02-17T02:47:05.345Z,100.00
2023-02-17T02:49:37.073Z,100.00
2023-02-17T02:52:26.716Z,100.00
2023-02-17T02:55:20.790Z,100.00
2023-02-17T02:57:57.170Z,100.00
2023-02-17T03:00:44.321Z,100.00
2023-02-17T03:03:31.636Z,100.00
2023-02-17T03:06:30.287Z,100.00
2023-02-17T03:09:05.398Z,100.00
2023-02-17T03:11:35.036Z,100.00
2023-02-17T03:14:06.781Z,100.00
2023-02-17T03:16:35.315Z,100.00
2023-02-17T03:19:02.152Z,100.00
2023-02-17T03:21:35.659Z,100.00
2023-02-17T03:24:02.388Z,100.00
2023-02-17T03:26:28.875Z,100.00
2023-02-17T03:28:56.297Z,100.00
2023-02-17T03:31:23.669Z,100.00
2023-02-17T03:33:50.639Z,100.00
2023-02-17T03:36:17.491Z,100.00
2023-02-17T03:38:44.738Z,100.00
2023-02-17T03:41:11.261Z,100.00
2023-02-17T03:43:37.829Z,100.00
2023-02-17T03:46:10.089Z,100.00
2023-02-17T03:48:36.683Z,100.00
2023-02-17T03:51:21.263Z,100.00
2023-02-17T03:53:49.332Z,100.00
2023-02-17T03:56:17.646Z,100.00
2023-02-17T03:58:45.892Z,100.00
2023-02-17T04:01:13.498Z,100.00
2023-02-17T04:03:40.966Z,100.00
2023-02-17T04:06:08.707Z,100.00
2023-02-17T04:08:35.830Z,100.00
2023-02-17T04:11:04.644Z,100.00
2023-02-17T04:13:31.350Z,100.00
2023-02-17T04:16:01.286Z,100.00
2023-02-17T04:18:28.628Z,100.00
2023-02-17T04:20:55.134Z,100.00
2023-02-17T04:23:21.983Z,100.00
2023-02-17T04:25:49.359Z,100.00
2023-02-17T04:28:16.959Z,100.00
2023-02-17T04:30:49.498Z,100.00
2023-02-17T04:33:17.041Z,100.00
2023-02-17T04:35:43.618Z,100.00
2023-02-17T04:38:11.273Z,100.00
2023-02-17T04:40:38.565Z,100.00
2023-02-17T04:43:05.237Z,100.00
2023-02-17T04:45:32.586Z,100.00
2023-02-17T04:47:59.075Z,100.00
2023-02-17T04:50:25.606Z,100.00
2023-02-17T04:52:52.155Z,100.00
2023-02-17T04:55:19.042Z,100.00
2023-02-17T04:57:45.479Z,100.00
2023-02-17T05:00:13.425Z,100.00
2023-02-17T05:02:40.178Z,100.00
2023-02-17T05:05:07.504Z,100.00
2023-02-17T05:07:34.046Z,100.00
2023-02-17T05:10:00.584Z,100.00
2023-02-17T05:12:27.231Z,100.00
2023-02-17T05:14:53.721Z,100.00
2023-02-17T05:17:20.314Z,100.00
2023-02-17T05:19:46.801Z,100.00
2023-02-17T05:22:13.282Z,100.00
2023-02-17T05:24:39.753Z,100.00
2023-02-17T05:27:06.218Z,100.00
2023-02-17T05:29:32.853Z,100.00
2023-02-17T05:32:00.024Z,100.00
2023-02-17T05:34:26.576Z,100.00
2023-02-17T05:36:53.284Z,100.00
2023-02-17T05:39:19.770Z,100.00
2023-02-17T05:41:46.223Z,100.00
2023-02-17T05:44:12.807Z,100.00
2023-02-17T05:46:40.751Z,100.00
2023-02-17T05:49:07.493Z,100.00
2023-02-17T05:51:33.966Z,100.00
2023-02-17T05:54:00.625Z,100.00
2023-02-17T05:56:27.476Z,100.00
2023-02-17T05:58:54.160Z,100.00
2023-02-17T06:01:21.497Z,100.00
2023-02-17T06:03:48.131Z,100.00
2023-02-17T06:06:14.776Z,100.00
2023-02-17T06:08:41.217Z,100.00
2023-02-17T06:11:10.988Z,100.00
2023-02-17T06:13:37.529Z,100.00
2023-02-17T06:16:05.353Z,100.00
2023-02-17T06:18:32.091Z,100.00
2023-02-17T06:20:59.323Z,100.00
2023-02-17T06:23:27.028Z,100.00
2023-02-17T06:25:54.017Z,100.00
2023-02-17T06:28:20.496Z,100.00
2023-02-17T06:30:47.087Z,100.00
2023-02-17T06:33:14.773Z,100.00
2023-02-17T06:35:41.281Z,100.00
2023-02-17T06:38:07.804Z,100.00
2023-02-17T06:40:34.304Z,100.00
2023-02-17T06:43:01.359Z,100.00
2023-02-17T06:45:29.163Z,100.00
2023-02-17T06:47:55.720Z,100.00
2023-02-17T06:50:22.195Z,100.00
2023-02-17T06:52:48.768Z,100.00
2023-02-17T06:55:15.430Z,100.00
2023-02-17T06:57:42.101Z,100.00
2023-02-17T07:00:09.145Z,100.00
2023-02-17T07:02:38.683Z,100.00
2023-02-17T07:05:08.231Z,100.00
2023-02-17T07:07:34.888Z,100.00
2023-02-17T07:10:01.530Z,100.00
2023-02-17T07:12:29.337Z,100.00
2023-02-17T07:14:58.504Z,100.00
2023-02-17T07:17:24.945Z,100.00
2023-02-17T07:19:51.519Z,100.00
2023-02-17T07:22:18.037Z,100.00
2023-02-17T07:24:44.781Z,100.00
2023-02-17T07:27:11.332Z,100.00
2023-02-17T07:29:38.063Z,100.00
2023-02-17T07:32:04.978Z,100.00
2023-02-17T07:34:32.040Z,100.00
2023-02-17T07:36:58.701Z,100.00
2023-02-17T07:39:25.599Z,100.00
2023-02-17T07:41:52.213Z,100.00
2023-02-17T07:44:18.796Z,100.00
2023-02-17T07:46:45.487Z,100.00
2023-02-17T07:49:12.383Z,100.00
2023-02-17T07:51:38.907Z,100.00
2023-02-17T07:54:05.752Z,100.00
2023-02-17T07:56:33.772Z,100.00
2023-02-17T07:59:00.822Z,100.00
2023-02-17T08:01:27.432Z,100.00
2023-02-17T08:03:54.408Z,100.00
2023-02-17T08:06:23.394Z,100.00
2023-02-17T08:09:10.290Z,100.00
2023-02-17T08:11:55.925Z,100.00
2023-02-17T08:14:23.870Z,100.00
2023-02-17T08:16:50.620Z,100.00
2023-02-17T08:19:17.564Z,100.00
2023-02-17T08:21:44.179Z,99.48
2023-02-17T08:24:10.810Z,99.47
2023-02-17T08:26:37.395Z,98.52
2023-02-17T08:29:04.486Z,97.93
2023-02-17T08:31:33.393Z,97.66
2023-02-17T08:34:02.168Z,97.73
2023-02-17T08:36:29.590Z,97.37
2023-02-17T08:38:56.933Z,96.84
2023-02-17T08:41:30.764Z,96.25
2023-02-17T08:44:00.109Z,95.94
2023-02-17T08:46:28.334Z,95.76
2023-02-17T08:48:56.346Z,95.73
2023-02-17T08:51:28.060Z,95.03
2023-02-17T08:53:57.091Z,95.33
2023-02-17T08:56:24.995Z,94.82
2023-02-17T08:58:52.219Z,95.01
2023-02-17T09:01:19.321Z,94.41
2023-02-17T09:03:47.792Z,94.32
2023-02-17T09:06:15.777Z,94.30
2023-02-17T09:08:43.713Z,94.50
2023-02-17T09:11:10.400Z,94.56
2023-02-17T09:13:37.559Z,94.02
2023-02-17T09:16:05.055Z,94.30
2023-02-17T09:18:31.928Z,94.53
2023-02-17T09:21:00.584Z,93.77
2023-02-17T09:23:27.521Z,95.51
2023-02-17T09:26:06.528Z,95.26
2023-02-17T09:28:35.035Z,93.57
2023-02-17T09:31:22.427Z,92.58
2023-02-17T09:33:51.226Z,92.07
2023-02-17T09:36:21.233Z,91.72
2023-02-17T09:38:49.108Z,90.61
2023-02-17T09:41:24.544Z,91.02
2023-02-17T09:43:52.762Z,91.03
2023-02-17T09:46:37.468Z,91.71
2023-02-17T09:49:12.374Z,92.23
2023-02-17T09:52:04.585Z,92.56
2023-02-17T09:54:41.261Z,92.85
2023-02-17T09:57:12.245Z,93.31
2023-02-17T09:59:46.573Z,93.69
2023-02-17T10:02:28.119Z,93.96
2023-02-17T10:05:01.304Z,94.21
2023-02-17T10:07:36.176Z,94.05
2023-02-17T10:10:08.517Z,94.11
2023-02-17T10:12:41.288Z,94.32
2023-02-17T10:15:19.475Z,94.40
2023-02-17T10:17:48.684Z,94.10
2023-02-17T10:20:28.786Z,94.30
2023-02-17T10:23:01.763Z,94.29
2023-02-17T10:25:46.518Z,94.32
2023-02-17T10:28:23.238Z,94.76
2023-02-17T10:31:02.125Z,94.94
2023-02-17T10:33:38.094Z,95.30
2023-02-17T10:36:34.153Z,95.70
2023-02-17T10:39:13.404Z,95.78
2023-02-17T10:41:42.197Z,96.13
2023-02-17T10:44:16.074Z,96.07
2023-02-17T10:46:44.264Z,96.44
2023-02-17T10:49:30.205Z,96.67
2023-02-17T10:52:01.889Z,96.98
2023-02-17T10:54:37.231Z,97.44
2023-02-17T10:57:08.127Z,97.58
2023-02-17T10:59:43.752Z,97.91
2023-02-17T11:02:25.057Z,97.96
2023-02-17T11:04:55.027Z,97.84
2023-02-17T11:07:32.569Z,97.55
2023-02-17T11:10:03.427Z,98.07
2023-02-17T11:12:42.322Z,97.49
2023-02-17T11:15:18.996Z,97.69
2023-02-17T11:17:47.400Z,97.89
2023-02-17T11:20:13.911Z,97.72
2023-02-17T11:22:41.782Z,97.56
2023-02-17T11:25:23.107Z,97.34
2023-02-17T11:27:55.306Z,97.31
2023-02-17T11:30:22.823Z,97.17
2023-02-17T11:32:49.439Z,96.77
2023-02-17T11:35:26.803Z,96.90
2023-02-17T11:38:01.623Z,96.15
2023-02-17T11:40:31.276Z,95.69
2023-02-17T11:42:59.921Z,94.71
2023-02-17T11:45:35.443Z,93.79
2023-02-17T11:48:20.496Z,92.66
2023-02-17T11:50:58.441Z,92.38
2023-02-17T11:54:02.941Z,92.07
2023-02-17T11:56:34.734Z,91.82
2023-02-17T11:59:14.831Z,90.63
2023-02-17T12:02:10.055Z,90.16
2023-02-17T12:05:19.328Z,89.33
2023-02-17T12:08:02.848Z,89.32
2023-02-17T12:10:45.199Z,88.56
2023-02-17T12:13:34.740Z,88.46
2023-02-17T12:16:34.346Z,88.27
2023-02-17T12:19:13.024Z,86.66
2023-02-17T12:22:03.279Z,86.30
2023-02-17T12:24:42.955Z,85.85
2023-02-17T12:27:34.600Z,84.72
2023-02-17T12:30:19.619Z,83.23
2023-02-17T12:33:00.415Z,82.56
2023-02-17T12:35:55.609Z,81.73
2023-02-17T12:38:37.177Z,81.27
2023-02-17T12:41:25.314Z,80.90
2023-02-17T12:43:59.670Z,81.22
2023-02-17T12:46:32.712Z,81.43
2023-02-17T12:49:07.550Z,81.38
2023-02-17T12:51:40.919Z,81.96
2023-02-17T12:54:33.281Z,82.49
2023-02-17T12:57:17.333Z,83.14
2023-02-17T12:59:46.960Z,83.78
2023-02-17T13:02:31.421Z,84.12
2023-02-17T13:05:07.000Z,84.25
2023-02-17T13:07:51.080Z,84.55
2023-02-17T13:10:30.500Z,84.89
2023-02-17T13:13:04.833Z,85.00
2023-02-17T13:15:35.069Z,84.08
2023-02-17T13:18:24.488Z,84.11
2023-02-17T13:20:54.601Z,84.11
2023-02-17T13:24:26.261Z,83.75
2023-02-17T13:26:52.702Z,84.13
2023-02-17T13:29:25.139Z,84.16
2023-02-17T13:31:57.845Z,84.51
2023-02-17T13:34:39.594Z,84.86
2023-02-17T13:37:18.097Z,85.20
2023-02-17T13:39:45.818Z,84.99
2023-02-17T13:42:42.092Z,85.59
2023-02-17T13:45:25.030Z,85.66
2023-02-17T13:47:57.471Z,86.08
2023-02-17T13:50:28.096Z,87.05
2023-02-17T13:52:55.686Z,87.75
2023-02-17T13:55:25.875Z,89.67
2023-02-17T13:57:54.770Z,92.63
2023-02-17T14:00:21.666Z,94.24
2023-02-17T14:02:51.814Z,96.48
2023-02-17T14:05:41.676Z,97.83
2023-02-17T14:08:14.995Z,99.22
2023-02-17T14:10:41.619Z,99.89
2023-02-17T14:13:12.214Z,100.00
2023-02-17T14:15:53.368Z,100.00
2023-02-17T14:18:36.744Z,100.00
2023-02-17T14:21:10.836Z,100.00
2023-02-17T14:23:49.803Z,100.00
2023-02-17T14:26:31.481Z,100.00
2023-02-17T14:29:01.387Z,100.00
2023-02-17T14:31:28.509Z,100.00
2023-02-17T14:34:00.633Z,100.00
2023-02-17T14:36:37.262Z,100.00
2023-02-17T14:39:07.611Z,100.00
2023-02-17T14:41:34.960Z,100.00
2023-02-17T14:44:01.524Z,100.00
2023-02-17T14:46:28.374Z,100.00
2023-02-17T14:48:56.285Z,100.00
2023-02-17T14:51:25.434Z,100.00
2023-02-17T14:53:52.516Z,100.00
2023-02-17T14:56:27.125Z,100.00
2023-02-17T14:58:53.772Z,100.00
2023-02-17T15:01:22.221Z,100.00
2023-02-17T15:03:49.075Z,100.00
2023-02-17T15:06:18.492Z,100.00
2023-02-17T15:08:49.044Z,100.00
2023-02-17T15:11:30.240Z,100.00
2023-02-17T15:13:56.940Z,100.00
2023-02-17T15:16:23.571Z,100.00
2023-02-17T15:18:50.974Z,100.00
2023-02-17T15:21:36.503Z,100.00
2023-02-17T15:24:06.381Z,100.00
2023-02-17T15:26:32.866Z,100.00
2023-02-17T15:28:59.951Z,100.00
2023-02-17T15:31:32.236Z,100.00
2023-02-17T15:34:00.692Z,100.00
2023-02-17T15:36:28.520Z,100.00
2023-02-17T15:38:55.211Z,100.00
2023-02-17T15:41:25.707Z,100.00
2023-02-17T15:43:55.681Z,100.00
2023-02-17T15:46:28.862Z,100.00
2023-02-17T15:48:55.437Z,100.00
2023-02-17T15:51:23.363Z,100.00
2023-02-17T15:53:50.295Z,100.00
2023-02-17T15:56:29.891Z,100.00
2023-02-17T15:58:58.033Z,100.00
2023-02-17T16:01:32.723Z,100.00
2023-02-17T16:03:59.564Z,100.00
2023-02-17T16:06:27.278Z,100.00
2023-02-17T16:08:54.100Z,100.00
2023-02-17T16:11:22.542Z,100.00
2023-02-17T16:13:49.704Z,100.00
2023-02-17T16:16:25.251Z,100.00
2023-02-17T16:18:52.611Z,100.00
2023-02-17T16:21:19.246Z,100.00
2023-02-17T16:23:46.078Z,100.00
2023-02-17T16:26:26.144Z,100.00
2023-02-17T16:28:52.812Z,100.00
2023-02-17T16:31:19.661Z,100.00
2023-02-17T16:33:46.525Z,100.00
2023-02-17T16:36:18.677Z,100.00
2023-02-17T16:38:48.618Z,100.00
2023-02-17T16:41:18.542Z,100.00
2023-02-17T16:43:46.273Z,100.00
2023-02-17T16:46:27.288Z,100.00
2023-02-17T16:48:53.928Z,100.00
2023-02-17T16:51:21.206Z,100.00
2023-02-17T16:53:47.693Z,100.00
2023-02-17T16:56:21.124Z,100.00
2023-02-17T16:58:47.641Z,100.00
2023-02-17T17:01:14.159Z,100.00
2023-02-17T17:03:42.310Z,100.00
2023-02-17T17:06:29.993Z,100.00
2023-02-17T17:08:57.064Z,100.00
2023-02-17T17:11:26.257Z,100.00
2023-02-17T17:13:52.945Z,100.00
2023-02-17T17:16:24.703Z,100.00
2023-02-17T17:18:51.906Z,100.00
2023-02-17T17:21:20.101Z,100.00
2023-02-17T17:23:47.034Z,100.00
2023-02-17T17:26:26.175Z,100.00
2023-02-17T17:28:53.994Z,100.00
2023-02-17T17:31:21.387Z,100.00
2023-02-17T17:33:52.295Z,100.00
2023-02-17T17:36:31.240Z,100.00
2023-02-17T17:38:59.107Z,100.00
2023-02-17T17:41:28.218Z,100.00
2023-02-17T17:43:55.667Z,100.00
2023-02-17T17:46:30.986Z,100.00
2023-02-17T17:48:59.531Z,100.00
2023-02-17T17:51:28.195Z,100.00
2023-02-17T17:53:55.825Z,100.00
2023-02-17T17:56:28.341Z,100.00
2023-02-17T17:58:56.451Z,100.00
2023-02-17T18:01:23.326Z,100.00
2023-02-17T18:03:50.757Z,100.00
2023-02-17T18:06:27.061Z,100.00
2023-02-17T18:08:56.805Z,100.00
2023-02-17T18:11:24.561Z,100.00
2023-02-17T18:13:54.921Z,100.00
2023-02-17T18:16:24.595Z,100.00
2023-02-17T18:18:51.762Z,100.00
2023-02-17T18:21:18.337Z,100.00
2023-02-17T18:23:45.293Z,100.00
2023-02-17T18:26:12.472Z,100.00
2023-02-17T18:28:39.211Z,100.00
2023-02-17T18:31:18.673Z,100.00
2023-02-17T18:33:45.358Z,100.00
2023-02-17T18:36:17.554Z,100.00
2023-02-17T18:38:44.718Z,100.00
2023-02-17T18:41:26.428Z,100.00
2023-02-17T18:43:55.615Z,100.00
2023-02-17T18:46:22.108Z,100.00
2023-02-17T18:48:49.242Z,100.00
2023-02-17T18:51:19.322Z,100.00
2023-02-17T18:53:45.797Z,100.00
2023-02-17T18:56:15.280Z,100.00
2023-02-17T18:58:41.944Z,100.00
2023-02-17T19:01:18.783Z,100.00
2023-02-17T19:03:45.513Z,100.00
2023-02-17T19:06:15.906Z,100.00
2023-02-17T19:08:43.527Z,100.00
2023-02-17T19:11:10.242Z,100.00
2023-02-17T19:13:38.958Z,100.00
2023-02-17T19:16:14.162Z,100.00
2023-02-17T19:18:43.102Z,100.00
2023-02-17T19:21:11.419Z,100.00
2023-02-17T19:23:38.366Z,100.00
2023-02-17T19:26:07.569Z,100.00
2023-02-17T19:28:35.954Z,100.00
2023-02-17T19:31:05.494Z,100.00
2023-02-17T19:33:32.353Z,100.00
2023-02-17T19:35:58.880Z,100.00
2023-02-17T19:38:25.616Z,100.00
2023-02-17T19:40:52.074Z,100.00
2023-02-17T19:43:18.630Z,100.00
2023-02-17T19:45:46.602Z,100.00
2023-02-17T19:48:13.154Z,100.00
2023-02-17T19:50:40.319Z,95.17
2023-02-17T19:53:07.571Z,93.96
2023-02-17T19:55:34.087Z,92.34
2023-02-17T19:58:00.650Z,90.83
2023-02-17T20:00:27.254Z,91.46
2023-02-17T20:02:54.896Z,91.06
2023-02-17T20:05:21.425Z,88.06
2023-02-17T20:07:48.368Z,87.98
2023-02-17T20:10:14.977Z,88.00
2023-02-17T20:12:41.635Z,87.51
2023-02-17T20:15:09.102Z,86.65
2023-02-17T20:17:35.628Z,87.25
2023-02-17T20:20:02.149Z,87.40
2023-02-17T20:22:28.726Z,87.25
2023-02-17T20:24:55.283Z,90.08
2023-02-17T20:27:22.637Z,89.08
2023-02-17T20:29:49.204Z,89.35
2023-02-17T20:32:15.765Z,90.48
2023-02-17T20:34:42.322Z,90.56
2023-02-17T20:37:09.841Z,90.46
2023-02-17T20:39:38.525Z,90.52
2023-02-17T20:42:05.451Z,89.97
2023-02-17T20:44:32.062Z,89.89
2023-02-17T20:46:59.069Z,88.06
2023-02-17T20:49:25.829Z,88.19
2023-02-17T20:51:52.682Z,86.51
2023-02-17T20:54:19.613Z,85.58
2023-02-17T20:56:47.399Z,85.66
2023-02-17T20:59:14.856Z,84.44
2023-02-17T21:01:41.935Z,84.09
2023-02-17T21:04:09.738Z,83.98
2023-02-17T21:06:43.346Z,84.45
2023-02-17T21:09:14.791Z,84.00
2023-02-17T21:11:41.458Z,84.40
2023-02-17T21:14:08.395Z,83.22
2023-02-17T21:16:35.835Z,83.20
2023-02-17T21:19:04.113Z,82.57
2023-02-17T21:21:31.961Z,81.75
2023-02-17T21:24:00.722Z,81.46
2023-02-17T21:26:27.564Z,80.79
2023-02-17T21:28:56.056Z,80.62
2023-02-17T21:31:22.697Z,80.42
2023-02-17T21:33:49.148Z,79.73
2023-02-17T21:36:18.873Z,79.58
2023-02-17T21:38:45.967Z,79.86
2023-02-17T21:41:17.016Z,79.82
2023-02-17T21:44:03.130Z,79.84
2023-02-17T21:46:31.365Z,79.49
2023-02-17T21:48:59.797Z,79.55
2023-02-17T21:51:27.104Z,80.38
2023-02-17T21:53:54.025Z,80.34
2023-02-17T21:56:22.854Z,80.31
2023-02-17T21:58:52.470Z,80.87
2023-02-17T22:01:20.747Z,80.34
2023-02-17T22:03:47.448Z,80.03
2023-02-17T22:06:14.802Z,79.79
2023-02-17T22:08:41.421Z,79.30
2023-02-17T22:11:23.550Z,79.40
2023-02-17T22:13:53.860Z,79.52
2023-02-17T22:16:20.486Z,79.12
2023-02-17T22:18:46.985Z,79.61
2023-02-17T22:21:14.111Z,79.45
2023-02-17T22:23:41.908Z,79.15
2023-02-17T22:26:15.852Z,79.34
2023-02-17T22:28:43.273Z,79.18
2023-02-17T22:31:13.869Z,79.10
2023-02-17T22:33:40.785Z,79.43
2023-02-17T22:36:10.611Z,79.50
2023-02-17T22:38:38.493Z,79.25
2023-02-17T22:41:10.822Z,79.40
2023-02-17T22:43:40.335Z,79.43
2023-02-17T22:46:08.277Z,79.40
2023-02-17T22:48:37.285Z,79.65
2023-02-17T22:51:06.748Z,80.19
2023-02-17T22:53:36.397Z,79.83
2023-02-17T22:56:04.596Z,80.17
2023-02-17T22:58:31.278Z,80.54
2023-02-17T23:01:07.157Z,80.36
2023-02-17T23:03:34.870Z,79.67
2023-02-17T23:06:08.587Z,79.88
2023-02-17T23:08:35.554Z,79.97
2023-02-17T23:11:06.581Z,79.98
2023-02-17T23:13:34.066Z,79.25
2023-02-17T23:16:02.244Z,79.20
2023-02-17T23:18:30.994Z,79.56
2023-02-17T23:20:58.053Z,79.91
2023-02-17T23:23:26.931Z,78.83
2023-02-17T23:25:55.552Z,79.17
2023-02-17T23:28:24.386Z,78.31
2023-02-17T23:30:51.405Z,78.69
2023-02-17T23:33:20.148Z,78.59
2023-02-17T23:35:47.723Z,77.98
2023-02-17T23:38:17.116Z,77.87
2023-02-17T23:40:49.233Z,78.27
2023-02-17T23:43:15.828Z,77.72
2023-02-17T23:45:42.580Z,77.95
2023-02-17T23:48:09.131Z,78.40
2023-02-17T23:50:35.648Z,78.09
2023-02-17T23:53:02.190Z,77.87
2023-02-17T23:55:28.710Z,77.45
2023-02-17T23:57:55.185Z,77.26
